Time;durP1;ratioP1;P1;durP2;ratioP2;P2;SDS_P1;SDS_P2;PMS_P1;PMS_P2;Temp;Humidity;BMP_temperature;BMP_pressure;BME280_temperature;BME280_humidity;BME280_pressure;Samples;Min_cycle;Max_cycle;Signal;HPM_P1;HPM_P2
2023/08/20 00:00:04;;;;;;;8.65;6.50;;;;;;;19.27;100.00;101165.84;702263;28;907;-66
2023/08/20 00:00:33;;;;;;;8.88;6.60;;;;;;;19.29;100.00;101163.16;700525;28;1179;-66
2023/08/20 00:00:56;;;;;;;9.73;6.80;;;;;;;19.29;100.00;101164.00;703186;28;4465;-65
2023/08/20 00:01:21;;;;;;;8.52;6.38;;;;;;;19.30;100.00;101157.81;699287;28;1491;-67
2023/08/20 00:01:42;;;;;;;9.50;6.50;;;;;;;19.30;100.00;101165.75;699916;28;951;-65
2023/08/20 00:02:06;;;;;;;8.87;6.40;;;;;;;19.30;100.00;101160.44;699704;28;1287;-65
2023/08/20 00:02:30;;;;;;;9.45;6.30;;;;;;;19.28;100.00;101154.31;701279;28;1750;-65
2023/08/20 00:03:08;;;;;;;8.82;6.38;;;;;;;19.28;100.00;101162.28;701748;28;816;-65
2023/08/20 00:03:28;;;;;;;9.35;6.30;;;;;;;19.31;100.00;101156.84;700561;28;1945;-66
2023/08/20 00:03:51;;;;;;;8.70;6.20;;;;;;;19.29;100.00;101158.72;702861;28;4552;-65
2023/08/20 00:04:12;;;;;;;8.68;6.00;;;;;;;19.29;100.00;101157.84;703385;28;1049;-65
2023/08/20 00:04:36;;;;;;;8.88;6.15;;;;;;;19.27;100.00;101168.47;697556;28;2262;-65
2023/08/20 00:04:58;;;;;;;7.40;6.28;;;;;;;19.26;100.00;101165.88;700873;28;891;-66
2023/08/20 00:05:19;;;;;;;8.95;6.93;;;;;;;19.28;100.00;101162.28;699560;28;1800;-65
2023/08/20 00:05:40;;;;;;;8.85;6.13;;;;;;;19.27;100.00;101165.84;701175;28;943;-65
2023/08/20 00:06:01;;;;;;;8.05;6.10;;;;;;;19.27;100.00;101164.97;701103;28;1568;-66
2023/08/20 00:06:22;;;;;;;8.07;6.18;;;;;;;19.26;100.00;101166.78;701450;28;2018;-66
2023/08/20 00:06:44;;;;;;;7.55;6.40;;;;;;;19.26;100.00;101161.47;703000;28;4330;-65
2023/08/20 00:07:04;;;;;;;7.82;6.10;;;;;;;19.25;100.00;101165.03;701028;28;1448;-66
2023/08/20 00:07:25;;;;;;;7.90;5.90;;;;;;;19.25;100.00;101167.69;698499;28;1678;-66
2023/08/20 00:07:45;;;;;;;7.85;6.18;;;;;;;19.26;100.00;101169.41;700293;28;953;-66
2023/08/20 00:08:06;;;;;;;9.07;6.23;;;;;;;19.26;100.00;101173.84;700195;28;804;-66
2023/08/20 00:08:26;;;;;;;8.20;6.28;;;;;;;19.23;100.00;101172.16;697920;28;1837;-67
2023/08/20 00:08:48;;;;;;;8.30;6.47;;;;;;;19.22;100.00;101168.66;701842;28;982;-65
2023/08/20 00:09:08;;;;;;;9.00;6.15;;;;;;;19.22;100.00;101178.41;702633;28;887;-62
2023/08/20 00:09:30;;;;;;;7.93;6.10;;;;;;;19.21;100.00;101171.34;700687;28;1747;-66
2023/08/20 00:09:50;;;;;;;7.60;6.15;;;;;;;19.21;100.00;101176.66;702251;28;4326;-65
2023/08/20 00:10:10;;;;;;;7.38;6.00;;;;;;;19.19;100.00;101173.16;702328;28;816;-65
2023/08/20 00:10:31;;;;;;;8.87;6.10;;;;;;;19.19;100.00;101174.06;702457;28;2379;-66
2023/08/20 00:10:52;;;;;;;7.93;6.10;;;;;;;19.19;100.00;101175.81;703572;28;969;-66
2023/08/20 00:11:13;;;;;;;7.68;6.13;;;;;;;19.18;100.00;101179.41;703871;28;977;-65
2023/08/20 00:11:34;;;;;;;7.72;6.22;;;;;;;19.15;100.00;101174.19;699085;28;2298;-65
2023/08/20 00:11:54;;;;;;;8.57;6.30;;;;;;;19.13;100.00;101176.03;702011;28;851;-66
2023/08/20 00:12:15;;;;;;;9.77;6.87;;;;;;;19.13;100.00;101171.59;697966;28;1353;-66
2023/08/20 00:12:35;;;;;;;8.43;6.53;;;;;;;19.12;100.00;101174.28;697079;28;2856;-65
2023/08/20 00:12:55;;;;;;;7.90;6.40;;;;;;;19.15;100.00;101177.72;698940;28;4436;-66
2023/08/20 00:13:16;;;;;;;7.60;6.57;;;;;;;19.15;100.00;101174.19;701543;28;824;-65
2023/08/20 00:13:36;;;;;;;8.80;6.60;;;;;;;19.14;100.00;101170.69;699906;28;1611;-65
2023/08/20 00:13:57;;;;;;;9.57;6.30;;;;;;;19.13;100.00;101179.53;701883;28;1251;-66
2023/08/20 00:14:17;;;;;;;8.82;6.97;;;;;;;19.13;100.00;101173.38;692864;28;1987;-65
2023/08/20 00:15:03;;;;;;;9.70;6.57;;;;;;;19.19;100.00;101173.16;690763;28;1206;-65
2023/08/20 00:15:27;;;;;;;8.10;6.50;;;;;;;19.19;100.00;101176.69;691337;28;2726;-65
2023/08/20 00:15:48;;;;;;;9.48;6.30;;;;;;;19.19;100.00;101174.06;691519;28;4746;-66
2023/08/20 00:16:09;;;;;;;9.15;6.63;;;;;;;19.19;100.00;101174.06;696021;28;947;-66
2023/08/20 00:16:30;;;;;;;9.25;6.40;;;;;;;19.19;100.00;101178.47;700193;28;3986;-66
2023/08/20 00:16:50;;;;;;;8.48;6.20;;;;;;;19.16;100.00;101179.47;703044;28;887;-65
2023/08/20 00:17:11;;;;;;;7.80;6.37;;;;;;;19.14;100.00;101175.97;703314;28;1057;-65
2023/08/20 00:17:36;;;;;;;7.85;6.18;;;;;;;19.13;100.00;101183.97;702754;28;1861;-65
2023/08/20 00:17:57;;;;;;;9.52;6.50;;;;;;;19.13;100.00;101179.53;702908;28;1035;-66
2023/08/20 00:18:18;;;;;;;8.52;6.65;;;;;;;19.12;100.00;101188.44;702711;28;2437;-66
2023/08/20 00:18:39;;;;;;;8.15;6.60;;;;;;;19.10;100.00;101181.44;703854;28;867;-66
2023/08/20 00:18:59;;;;;;;8.05;6.30;;;;;;;19.06;100.00;101183.31;703096;27;4487;-65
2023/08/20 00:19:20;;;;;;;9.03;6.57;;;;;;;19.05;100.00;101177.16;701613;28;1735;-66
2023/08/20 00:19:41;;;;;;;9.23;6.90;;;;;;;19.05;100.00;101181.56;703696;28;1362;-67
2023/08/20 00:20:08;;;;;;;9.13;6.93;;;;;;;19.04;100.00;101186.00;703793;28;807;-66
2023/08/20 00:20:29;;;;;;;10.57;7.10;;;;;;;19.03;100.00;101183.41;701717;28;1667;-66
2023/08/20 00:20:50;;;;;;;8.55;6.78;;;;;;;19.02;100.00;101182.56;703360;28;1155;-67
2023/08/20 00:21:11;;;;;;;8.67;6.57;;;;;;;19.03;100.00;101178.97;703943;28;1358;-67
2023/08/20 00:21:31;;;;;;;9.00;6.80;;;;;;;19.01;100.00;101180.81;701402;28;1719;-67
2023/08/20 00:21:52;;;;;;;8.00;6.50;;;;;;;19.00;100.00;101179.06;701513;28;4484;-67
2023/08/20 00:22:14;;;;;;;7.18;6.05;;;;;;;19.00;100.00;101179.06;704144;28;1144;-67
2023/08/20 00:22:35;;;;;;;7.97;6.07;;;;;;;19.00;100.00;101181.72;701593;28;1464;-66
2023/08/20 00:22:55;;;;;;;9.65;6.47;;;;;;;19.01;100.00;101183.47;703130;28;1149;-67
2023/08/20 00:23:16;;;;;;;9.85;6.88;;;;;;;19.01;100.00;101183.47;703505;28;1336;-66
2023/08/20 00:23:37;;;;;;;9.97;6.80;;;;;;;18.99;100.00;101177.31;698914;28;1449;-67
2023/08/20 00:23:58;;;;;;;9.07;6.70;;;;;;;19.00;100.00;101183.50;699178;28;1344;-67
2023/08/20 00:24:18;;;;;;;9.63;6.60;;;;;;;19.00;100.00;101188.81;697130;28;1597;-67
2023/08/20 00:24:39;;;;;;;8.57;6.28;;;;;;;18.99;100.00;101187.94;697556;28;825;-66
2023/08/20 00:24:59;;;;;;;7.33;6.47;;;;;;;19.00;100.00;101192.31;696117;28;4458;-66
2023/08/20 00:25:20;;;;;;;8.18;6.75;;;;;;;19.02;100.00;101192.25;698492;28;2215;-65
2023/08/20 00:25:41;;;;;;;9.40;6.83;;;;;;;19.03;100.00;101191.34;701307;28;1384;-66
2023/08/20 00:26:02;;;;;;;8.85;6.55;;;;;;;19.03;100.00;101189.56;701275;28;811;-67
2023/08/20 00:26:23;;;;;;;8.50;6.65;;;;;;;19.04;100.00;101191.31;701272;28;2400;-67
2023/08/20 00:26:43;;;;;;;9.33;6.70;;;;;;;19.04;100.00;101191.31;700543;28;859;-67
2023/08/20 00:27:04;;;;;;;9.45;6.68;;;;;;;19.03;100.00;101184.25;700480;28;978;-67
2023/08/20 00:27:24;;;;;;;9.10;6.60;;;;;;;19.02;100.00;101186.97;701377;27;1727;-67
2023/08/20 00:27:45;;;;;;;8.75;7.03;;;;;;;19.00;100.00;101194.97;706913;27;4271;-63
2023/08/20 00:28:05;;;;;;;8.13;6.50;;;;;;;18.98;100.00;101185.34;707125;27;826;-66
2023/08/20 00:28:26;;;;;;;9.90;6.50;;;;;;;18.96;100.00;101193.31;704945;27;1480;-67
2023/08/20 00:28:47;;;;;;;8.45;6.40;;;;;;;18.95;100.00;101190.72;704915;27;1509;-67
2023/08/20 00:29:07;;;;;;;8.00;6.40;;;;;;;18.94;100.00;101189.88;704541;27;1343;-67
2023/08/20 00:29:30;;;;;;;9.70;6.75;;;;;;;18.96;100.00;101192.47;697832;28;1971;-66
2023/08/20 00:29:50;;;;;;;8.30;6.10;;;;;;;18.96;100.00;101193.31;698481;28;1385;-66
2023/08/20 00:30:11;;;;;;;8.77;6.40;;;;;;;18.96;100.00;101185.38;701883;28;946;-67
2023/08/20 00:30:32;;;;;;;9.52;7.00;;;;;;;18.97;100.00;101189.78;697831;28;1066;-66
2023/08/20 00:30:52;;;;;;;8.67;6.93;;;;;;;19.00;100.00;101189.66;699979;28;4357;-67
2023/08/20 00:31:13;;;;;;;9.32;7.00;;;;;;;18.99;100.00;101187.94;701413;28;801;-66
2023/08/20 00:31:33;;;;;;;8.77;7.00;;;;;;;18.98;100.00;101186.22;697356;28;1742;-67
2023/08/20 00:31:53;;;;;;;8.30;6.93;;;;;;;18.97;100.00;101189.78;704215;28;971;-66
2023/08/20 00:32:14;;;;;;;8.47;6.87;;;;;;;18.97;100.00;101186.25;701713;28;804;-66
2023/08/20 00:32:36;;;;;;;8.57;6.57;;;;;;;18.98;100.00;101190.63;702163;28;1214;-67
2023/08/20 00:32:56;;;;;;;9.27;6.68;;;;;;;18.97;100.00;101194.19;704341;28;982;-66
2023/08/20 00:33:17;;;;;;;7.90;6.63;;;;;;;18.94;100.00;101192.53;704118;28;879;-66
2023/08/20 00:33:37;;;;;;;8.40;6.33;;;;;;;18.93;100.00;101198.72;701033;28;2349;-64
2023/08/20 00:33:58;;;;;;;9.40;6.88;;;;;;;18.93;100.00;101197.84;701487;28;4392;-67
2023/08/20 00:34:19;;;;;;;9.60;6.83;;;;;;;18.93;100.00;101197.84;698850;28;1585;-65
2023/08/20 00:34:40;;;;;;;9.30;6.78;;;;;;;18.93;100.00;101198.72;698537;28;1162;-65
2023/08/20 00:35:02;;;;;;;9.33;7.10;;;;;;;18.93;100.00;101196.09;695814;28;1228;-65
2023/08/20 00:35:23;;;;;;;9.15;6.60;;;;;;;18.93;100.00;101200.50;694856;28;2682;-65
2023/08/20 00:35:43;;;;;;;8.60;6.47;;;;;;;18.93;100.00;101198.72;696185;28;953;-66
2023/08/20 00:36:04;;;;;;;9.20;6.80;;;;;;;18.93;100.00;101190.78;696709;28;1245;-66
2023/08/20 00:36:26;;;;;;;9.02;6.80;;;;;;;18.94;100.00;101197.81;700484;28;1451;-65
2023/08/20 00:36:48;;;;;;;9.63;6.82;;;;;;;18.94;100.00;101191.63;701775;28;4332;-65
2023/08/20 00:37:08;;;;;;;9.98;7.15;;;;;;;18.92;100.00;101196.13;698458;28;1276;-65
2023/08/20 00:37:31;;;;;;;9.83;7.03;;;;;;;18.93;100.00;101204.03;694745;28;1680;-65
2023/08/20 00:37:54;;;;;;;9.10;6.65;;;;;;;18.93;100.00;101198.72;696515;28;1906;-65
2023/08/20 00:38:14;;;;;;;9.38;6.63;;;;;;;18.96;100.00;101195.13;697830;28;1968;-66
2023/08/20 00:38:34;;;;;;;10.27;6.57;;;;;;;18.97;100.00;101191.53;694832;28;1581;-65
2023/08/20 00:38:56;;;;;;;8.10;7.00;;;;;;;18.97;100.00;101194.19;697104;28;5307;-66
2023/08/20 00:39:18;;;;;;;7.95;6.50;;;;;;;18.97;100.00;101192.41;699657;28;1549;-65
2023/08/20 00:39:39;;;;;;;7.90;6.72;;;;;;;18.97;100.00;101199.47;696205;28;1855;-65
2023/08/20 00:40:00;;;;;;;7.75;6.60;;;;;;;18.95;100.00;101193.38;697200;28;4311;-67
2023/08/20 00:40:20;;;;;;;8.43;6.57;;;;;;;18.94;100.00;101184.56;698591;28;1582;-65
2023/08/20 00:40:41;;;;;;;9.30;6.77;;;;;;;18.94;100.00;101200.47;700862;28;852;-64
2023/08/20 00:41:01;;;;;;;8.57;6.43;;;;;;;18.94;100.00;101194.28;702898;27;1148;-65
2023/08/20 00:41:21;;;;;;;7.40;6.00;;;;;;;18.93;100.00;101198.72;704873;27;2508;-65
2023/08/20 00:41:42;;;;;;;7.60;6.28;;;;;;;18.93;100.00;101198.72;704666;27;869;-65
2023/08/20 00:42:02;;;;;;;7.70;6.20;;;;;;;18.94;100.00;101189.00;705097;27;1227;-65
2023/08/20 00:42:25;;;;;;;7.50;6.15;;;;;;;18.93;100.00;101197.84;702274;28;964;-65
2023/08/20 00:42:45;;;;;;;9.02;6.22;;;;;;;18.93;100.00;101198.72;701276;28;4382;-66
2023/08/20 00:43:06;;;;;;;8.68;6.35;;;;;;;18.94;100.00;101195.19;701785;28;930;-66
2023/08/20 00:43:26;;;;;;;9.07;6.87;;;;;;;18.93;100.00;101196.09;698604;28;2372;-66
2023/08/20 00:43:47;;;;;;;9.32;6.80;;;;;;;18.92;100.00;101197.00;701211;28;1299;-65
2023/08/20 00:44:07;;;;;;;8.47;6.50;;;;;;;18.92;100.00;101197.00;698859;28;946;-65
2023/08/20 00:44:28;;;;;;;7.77;6.27;;;;;;;18.92;100.00;101199.63;699074;28;1909;-66
2023/08/20 00:44:48;;;;;;;8.95;6.30;;;;;;;18.93;100.00;101197.84;698787;28;3377;-65
2023/08/20 00:45:09;;;;;;;10.27;6.50;;;;;;;18.93;100.00;101193.44;695597;28;1635;-66
2023/08/20 00:45:30;;;;;;;8.82;6.57;;;;;;;18.93;100.00;101190.78;695672;28;1973;-65
2023/08/20 00:45:50;;;;;;;9.00;6.80;;;;;;;18.94;100.00;101189.88;695494;28;4521;-65
2023/08/20 00:46:11;;;;;;;8.27;6.72;;;;;;;18.94;100.00;101192.53;695525;28;1278;-65
2023/08/20 00:46:32;;;;;;;9.50;7.30;;;;;;;18.93;100.00;101187.25;695139;28;1427;-65
2023/08/20 00:46:53;;;;;;;10.10;7.10;;;;;;;18.91;100.00;101184.66;696478;28;1159;-65
2023/08/20 00:47:14;;;;;;;8.73;6.82;;;;;;;18.91;100.00;101194.38;698199;28;951;-65
2023/08/20 00:47:35;;;;;;;9.25;6.63;;;;;;;18.89;100.00;101187.34;697033;28;2155;-65
2023/08/20 00:47:56;;;;;;;9.30;6.90;;;;;;;18.89;100.00;101191.78;699053;28;1401;-65
2023/08/20 00:48:17;;;;;;;8.05;6.60;;;;;;;18.89;100.00;101189.16;698485;28;1347;-65
2023/08/20 00:48:38;;;;;;;8.27;6.37;;;;;;;18.90;100.00;101185.59;697674;28;1809;-65
2023/08/20 00:48:59;;;;;;;7.38;6.30;;;;;;;18.89;100.00;101184.69;695588;28;4344;-65
2023/08/20 00:49:21;;;;;;;8.35;6.05;;;;;;;18.89;100.00;101187.34;694545;28;2769;-65
2023/08/20 00:49:41;;;;;;;9.37;6.33;;;;;;;18.89;100.00;101192.66;696422;28;859;-64
2023/08/20 00:50:08;;;;;;;8.98;6.30;;;;;;;18.89;100.00;101192.66;699594;28;1406;-65
2023/08/20 00:50:28;;;;;;;8.10;6.38;;;;;;;18.90;100.00;101193.53;695619;28;1515;-66
2023/08/20 00:50:49;;;;;;;8.35;6.18;;;;;;;18.91;100.00;101199.69;696314;28;1294;-65
2023/08/20 00:51:11;;;;;;;7.65;5.90;;;;;;;18.89;100.00;101197.09;696404;28;1417;-65
2023/08/20 00:51:33;;;;;;;8.95;6.20;;;;;;;18.86;100.00;101194.50;695863;28;2460;-65
2023/08/20 00:51:54;;;;;;;8.23;5.90;;;;;;;18.84;100.00;101194.56;698762;28;4501;-66
2023/08/20 00:52:17;;;;;;;8.27;6.00;;;;;;;18.82;100.00;101196.38;700060;28;827;-65
2023/08/20 00:52:38;;;;;;;10.00;6.30;;;;;;;18.81;100.00;101194.63;702377;28;999;-65
2023/08/20 00:52:59;;;;;;;11.55;6.70;;;;;;;18.79;100.00;101192.94;703059;28;956;-65
2023/08/20 00:53:19;;;;;;;9.93;6.87;;;;;;;18.78;100.00;101188.59;701524;28;1219;-65
2023/08/20 00:53:40;;;;;;;7.70;6.38;;;;;;;18.78;100.00;101196.53;701233;28;1347;-65
2023/08/20 00:54:02;;;;;;;8.68;6.68;;;;;;;18.76;100.00;101195.69;700908;28;1143;-65
2023/08/20 00:54:23;;;;;;;8.48;6.53;;;;;;;18.74;100.00;101187.78;697461;28;2105;-64
2023/08/20 00:54:47;;;;;;;9.20;6.70;;;;;;;18.77;100.00;101189.50;695201;28;4337;-66
2023/08/20 00:55:10;;;;;;;7.70;6.55;;;;;;;18.77;100.00;101193.00;698646;28;2123;-64
2023/08/20 00:55:30;;;;;;;8.70;6.63;;;;;;;18.79;100.00;101192.94;697944;28;1466;-65
2023/08/20 00:55:51;;;;;;;8.57;6.60;;;;;;;18.78;100.00;101188.59;698728;28;1418;-64
2023/08/20 00:56:11;;;;;;;8.82;6.30;;;;;;;18.78;100.00;101184.13;698817;28;793;-66
2023/08/20 00:56:33;;;;;;;9.52;6.68;;;;;;;18.79;100.00;101185.00;700115;28;1511;-64
2023/08/20 00:56:54;;;;;;;8.75;6.80;;;;;;;18.79;100.00;101191.19;699923;28;1317;-65
2023/08/20 00:57:17;;;;;;;9.23;6.63;;;;;;;18.78;100.00;101189.44;698585;28;1638;-64
2023/08/20 00:57:38;;;;;;;7.80;6.30;;;;;;;18.78;100.00;101183.28;699976;28;2814;-64
2023/08/20 00:58:00;;;;;;;8.45;6.60;;;;;;;18.80;100.00;101184.09;703099;28;4305;-64
2023/08/20 00:58:21;;;;;;;8.27;6.30;;;;;;;18.80;100.00;101186.75;701608;28;2321;-67
2023/08/20 00:58:42;;;;;;;8.20;6.00;;;;;;;18.80;100.00;101181.44;702784;28;741;-64
2023/08/20 00:59:05;;;;;;;9.35;6.40;;;;;;;18.81;100.00;101186.69;702981;28;1092;-65
2023/08/20 00:59:27;;;;;;;10.27;6.53;;;;;;;18.80;100.00;101181.44;701796;28;2360;-64
2023/08/20 00:59:50;;;;;;;8.07;6.28;;;;;;;18.78;100.00;101184.13;704174;28;793;-65
2023/08/20 01:00:11;;;;;;;8.52;6.57;;;;;;;18.78;100.00;101183.28;703736;28;1727;-64
2023/08/20 01:00:32;;;;;;;8.43;6.88;;;;;;;18.76;100.00;101183.34;697732;28;1418;-65
2023/08/20 01:00:52;;;;;;;8.57;6.47;;;;;;;18.76;100.00;101187.75;697626;28;4342;-65
2023/08/20 01:01:13;;;;;;;9.90;6.60;;;;;;;18.75;100.00;101178.06;698832;28;816;-64
2023/08/20 01:01:33;;;;;;;8.65;6.47;;;;;;;18.76;100.00;101182.44;697421;28;1771;-64
2023/08/20 01:01:53;;;;;;;7.50;6.43;;;;;;;18.77;100.00;101182.41;698382;28;1023;-64
2023/08/20 01:02:15;;;;;;;7.80;6.70;;;;;;;18.77;100.00;101178.91;698625;28;939;-65
2023/08/20 01:02:37;;;;;;;7.78;6.45;;;;;;;18.77;100.00;101185.03;701035;28;2845;-66
2023/08/20 01:02:57;;;;;;;8.73;6.28;;;;;;;18.76;100.00;101179.81;703204;28;812;-66
2023/08/20 01:03:17;;;;;;;8.23;6.27;;;;;;;18.76;100.00;101185.09;702339;28;901;-65
2023/08/20 01:03:38;;;;;;;8.80;6.57;;;;;;;18.74;100.00;101185.16;701985;28;1777;-65
2023/08/20 01:03:58;;;;;;;9.83;6.10;;;;;;;18.74;100.00;101182.50;698277;28;4559;-66
2023/08/20 01:04:19;;;;;;;9.75;6.43;;;;;;;18.71;100.00;101178.16;699303;28;1027;-66
2023/08/20 01:04:40;;;;;;;9.52;6.65;;;;;;;18.70;100.00;101180.84;699646;28;1773;-66
2023/08/20 01:05:02;;;;;;;8.07;6.23;;;;;;;18.71;100.00;101183.47;700443;28;871;-66
2023/08/20 01:05:24;;;;;;;8.82;6.43;;;;;;;18.71;100.00;101180.81;699204;28;1356;-65
2023/08/20 01:05:51;;;;;;;8.07;6.10;;;;;;;18.72;100.00;101179.03;699246;28;1309;-65
2023/08/20 01:06:15;;;;;;;9.88;6.15;;;;;;;18.73;100.00;101175.47;697706;28;951;-65
2023/08/20 01:06:54;;;;;;;9.02;6.25;;;;;;;18.71;100.00;101178.16;697252;28;2485;-65
2023/08/20 01:07:42;;;;;;;9.05;6.57;;;;;;;18.73;100.00;101180.75;696546;28;4939;-65
2023/08/20 01:08:08;;;;;;;7.70;6.07;;;;;;;18.72;100.00;101174.59;696692;28;1217;-65
2023/08/20 01:08:38;;;;;;;7.47;6.32;;;;;;;18.71;100.00;101180.81;692400;28;1802;-66
2023/08/20 01:09:15;;;;;;;8.25;6.50;;;;;;;18.72;100.00;101179.03;694030;28;1174;-66
2023/08/20 01:09:57;;;;;;;7.82;5.97;;;;;;;18.69;100.00;101180.00;699107;28;1719;-66
2023/08/20 01:10:30;;;;;;;8.00;6.70;;;;;;;18.69;100.00;101172.06;700820;28;5134;-65
2023/08/20 01:10:59;;;;;;;10.30;7.55;;;;;;;18.70;100.00;101181.72;704694;27;923;-65
2023/08/20 01:11:28;;;;;;;8.63;6.72;;;;;;;18.70;100.00;101184.34;702944;28;871;-65
2023/08/20 01:11:57;;;;;;;9.55;6.32;;;;;;;18.71;100.00;101172.00;698216;28;884;-66
2023/08/20 01:12:19;;;;;;;9.88;6.70;;;;;;;18.71;100.00;101174.66;700140;28;892;-65
2023/08/20 01:12:41;;;;;;;8.45;6.35;;;;;;;18.72;100.00;101177.25;699314;28;3772;-66
2023/08/20 01:13:02;;;;;;;9.25;6.70;;;;;;;18.71;100.00;101169.34;703917;28;6472;-65
2023/08/20 01:13:23;;;;;;;9.60;6.72;;;;;;;18.71;100.00;101172.88;705322;27;3015;-66
2023/08/20 01:13:43;;;;;;;7.97;6.65;;;;;;;18.70;100.00;101170.25;700472;28;1263;-65
2023/08/20 01:14:15;;;;;;;8.55;6.45;;;;;;;18.69;100.00;101180.00;698686;28;1485;-65
2023/08/20 01:14:36;;;;;;;8.63;6.80;;;;;;;18.68;100.00;101167.66;697027;28;1092;-65
2023/08/20 01:14:57;;;;;;;8.93;7.07;;;;;;;18.71;100.00;101174.66;693865;28;880;-66
2023/08/20 01:15:17;;;;;;;8.77;6.50;;;;;;;18.70;100.00;101165.81;696025;28;1386;-65
2023/08/20 01:15:37;;;;;;;9.13;6.78;;;;;;;18.73;100.00;101164.88;696140;28;1462;-66
2023/08/20 01:15:58;;;;;;;8.97;7.03;;;;;;;18.74;100.00;101168.41;701094;28;4366;-65
2023/08/20 01:16:18;;;;;;;8.27;6.80;;;;;;;18.70;100.00;101160.53;704678;28;1036;-65
2023/08/20 01:16:39;;;;;;;8.90;7.10;;;;;;;18.69;100.00;101164.13;699836;28;1242;-66
2023/08/20 01:16:59;;;;;;;9.63;7.17;;;;;;;18.68;100.00;101165.03;701822;28;1111;-65
2023/08/20 01:17:19;;;;;;;8.85;7.30;;;;;;;18.66;100.00;101156.28;699699;28;796;-65
2023/08/20 01:17:41;;;;;;;9.07;7.43;;;;;;;18.70;100.00;101163.19;701769;27;1909;-66
2023/08/20 01:18:02;;;;;;;8.52;7.20;;;;;;;18.76;100.00;101148.03;702349;28;1713;-65
2023/08/20 01:18:24;;;;;;;8.32;7.00;;;;;;;18.80;100.00;101154.94;703402;27;1755;-66
2023/08/20 01:18:44;;;;;;;9.50;6.85;;;;;;;18.78;100.00;101151.50;704250;27;4361;-66
2023/08/20 01:19:10;;;;;;;9.27;6.90;;;;;;;18.75;100.00;101154.22;699804;28;1213;-65
2023/08/20 01:19:30;;;;;;;8.73;6.78;;;;;;;18.72;100.00;101147.28;697663;28;1102;-65
2023/08/20 01:19:51;;;;;;;9.37;6.50;;;;;;;18.69;100.00;101142.94;696592;28;1168;-65
2023/08/20 01:20:13;;;;;;;11.20;6.60;;;;;;;18.67;100.00;101151.81;701515;28;1633;-65
2023/08/20 01:20:41;;;;;;;10.38;6.72;;;;;;;18.65;100.00;101151.88;695808;28;2311;-65
2023/08/20 01:21:10;;;;;;;8.57;6.55;;;;;;;18.66;100.00;101152.72;698069;28;1119;-65
2023/08/20 01:21:39;;;;;;;10.52;7.20;;;;;;;18.63;100.00;101159.00;696662;28;1479;-65
2023/08/20 01:22:15;;;;;;;10.65;7.10;;;;;;;18.62;100.00;101154.63;696540;28;4399;-65
2023/08/20 01:22:58;;;;;;;9.13;7.10;;;;;;;18.62;100.00;101154.63;693849;28;2203;-65
2023/08/20 01:23:55;;;;;;;9.90;7.15;;;;;;;18.61;100.00;101159.94;687004;28;1226;-65
2023/08/20 01:24:49;;;;;;;8.38;6.97;;;;;;;18.58;100.00;101153.00;695679;28;1154;-64
2023/08/20 01:25:43;;;;;;;8.85;6.55;;;;;;;18.58;100.00;101162.69;701987;27;4772;-64
2023/08/20 01:26:23;;;;;;;9.55;6.78;;;;;;;18.54;100.00;101161.94;704954;27;883;-66
2023/08/20 01:27:05;;;;;;;10.00;6.75;;;;;;;18.54;100.00;101164.59;702773;28;964;-63
2023/08/20 01:27:46;;;;;;;8.02;6.35;;;;;;;18.53;100.00;101170.78;695753;28;1585;-64
2023/08/20 01:28:27;;;;;;;9.57;6.68;;;;;;;18.53;100.00;101165.50;699052;28;4919;-66
2023/08/20 01:28:48;;;;;;;8.50;6.13;;;;;;;18.54;100.00;101162.78;702256;28;856;-64
2023/08/20 01:29:11;;;;;;;8.70;6.53;;;;;;;18.54;100.00;101169.88;698574;28;1026;-65
2023/08/20 01:29:32;;;;;;;8.60;6.97;;;;;;;18.53;100.00;101170.78;699591;28;2127;-64
2023/08/20 01:29:54;;;;;;;9.70;6.85;;;;;;;18.54;100.00;101169.88;701105;28;894;-64
2023/08/20 01:30:15;;;;;;;9.80;6.90;;;;;;;18.53;100.00;101165.50;700928;28;903;-64
2023/08/20 01:30:37;;;;;;;9.15;6.80;;;;;;;18.52;100.00;101166.41;700164;28;2289;-64
2023/08/20 01:30:59;;;;;;;8.93;6.63;;;;;;;18.53;100.00;101168.13;699238;28;4488;-63
2023/08/20 01:31:20;;;;;;;8.43;7.00;;;;;;;18.53;100.00;101176.06;700327;28;811;-65
2023/08/20 01:31:42;;;;;;;8.87;6.87;;;;;;;18.52;100.00;101171.69;699227;28;1724;-64
2023/08/20 01:32:04;;;;;;;8.75;6.97;;;;;;;18.52;100.00;101172.53;698112;28;1382;-64
2023/08/20 01:32:25;;;;;;;9.65;6.95;;;;;;;18.52;100.00;101171.69;692072;28;1848;-64
2023/08/20 01:32:47;;;;;;;8.63;6.60;;;;;;;18.52;100.00;101172.53;694217;28;962;-65
2023/08/20 01:33:09;;;;;;;9.57;6.72;;;;;;;18.53;100.00;101176.06;695895;28;990;-64
2023/08/20 01:33:30;;;;;;;9.63;7.10;;;;;;;18.52;100.00;101166.41;690543;28;1124;-67
2023/08/20 01:33:52;;;;;;;9.45;6.93;;;;;;;18.51;100.00;101167.28;698177;28;4331;-64
2023/08/20 01:34:15;;;;;;;9.18;6.82;;;;;;;18.53;100.00;101174.28;698594;28;994;-66
2023/08/20 01:34:35;;;;;;;8.10;6.57;;;;;;;18.53;100.00;101173.44;701220;28;1732;-63
2023/08/20 01:34:56;;;;;;;7.70;6.77;;;;;;;18.53;100.00;101173.44;702716;28;1608;-66
2023/08/20 01:35:17;;;;;;;8.55;7.00;;;;;;;18.53;100.00;101166.34;700108;28;1404;-63
2023/08/20 01:35:38;;;;;;;9.38;7.05;;;;;;;18.54;100.00;101164.59;695639;28;1927;-64
2023/08/20 01:36:11;;;;;;;9.93;6.78;;;;;;;18.55;100.00;101168.94;694613;28;1606;-65
2023/08/20 01:36:32;;;;;;;9.82;6.88;;;;;;;18.54;100.00;101168.09;692672;28;2693;-64
2023/08/20 01:36:52;;;;;;;8.67;6.80;;;;;;;18.55;100.00;101166.28;691671;28;4472;-64
2023/08/20 01:37:12;;;;;;;10.05;7.07;;;;;;;18.57;100.00;101166.25;695142;28;1294;-64
2023/08/20 01:37:33;;;;;;;10.80;6.93;;;;;;;18.57;100.00;101164.47;695195;28;2162;-64
2023/08/20 01:37:53;;;;;;;9.43;6.72;;;;;;;18.56;100.00;101170.69;702795;27;1942;-67
2023/08/20 01:38:14;;;;;;;8.90;6.60;;;;;;;18.56;100.00;101162.75;704975;27;895;-64
2023/08/20 01:38:34;;;;;;;8.45;6.47;;;;;;;18.54;100.00;101164.59;702160;28;1685;-64
2023/08/20 01:38:57;;;;;;;8.32;6.47;;;;;;;18.52;100.00;101159.31;698099;28;5244;-64
2023/08/20 01:39:18;;;;;;;8.90;6.50;;;;;;;18.52;100.00;101166.41;700645;28;1025;-64
2023/08/20 01:39:38;;;;;;;8.35;6.47;;;;;;;18.53;100.00;101162.84;698513;28;1584;-65
2023/08/20 01:39:59;;;;;;;8.23;6.80;;;;;;;18.52;100.00;101166.41;697087;28;4512;-65
2023/08/20 01:40:20;;;;;;;9.00;6.85;;;;;;;18.52;100.00;101164.59;696208;28;1254;-64
2023/08/20 01:40:40;;;;;;;9.77;7.03;;;;;;;18.53;100.00;101163.69;695370;28;1495;-64
2023/08/20 01:41:00;;;;;;;9.05;6.30;;;;;;;18.53;100.00;101168.13;699066;28;2248;-65
2023/08/20 01:41:21;;;;;;;8.10;6.10;;;;;;;18.50;100.00;101168.25;697732;28;1677;-64
2023/08/20 01:41:41;;;;;;;7.72;6.28;;;;;;;18.47;100.00;101163.91;696960;28;1378;-65
2023/08/20 01:42:02;;;;;;;8.43;6.67;;;;;;;18.47;100.00;101168.31;696550;28;1226;-64
2023/08/20 01:42:22;;;;;;;8.23;6.38;;;;;;;18.48;100.00;101167.41;698865;28;899;-64
2023/08/20 01:42:43;;;;;;;8.30;6.50;;;;;;;18.49;100.00;101166.50;697824;28;4383;-64
2023/08/20 01:43:03;;;;;;;8.38;6.68;;;;;;;18.49;100.00;101166.50;696775;28;1339;-66
2023/08/20 01:43:23;;;;;;;10.17;6.87;;;;;;;18.49;100.00;101163.84;696205;28;1208;-64
2023/08/20 01:43:44;;;;;;;9.50;7.35;;;;;;;18.50;100.00;101165.59;697248;28;2049;-63
2023/08/20 01:44:05;;;;;;;9.53;6.90;;;;;;;18.50;100.00;101170.88;697703;28;1188;-63
2023/08/20 01:44:26;;;;;;;9.18;6.88;;;;;;;18.48;100.00;101165.59;696815;28;1756;-64
2023/08/20 01:44:47;;;;;;;8.43;6.60;;;;;;;18.48;100.00;101164.75;696465;28;1242;-64
2023/08/20 01:45:07;;;;;;;8.27;6.33;;;;;;;18.46;100.00;101169.25;698593;28;1332;-64
2023/08/20 01:45:30;;;;;;;7.70;6.68;;;;;;;18.46;100.00;101166.59;699930;28;2719;-64
2023/08/20 01:45:51;;;;;;;8.18;6.97;;;;;;;18.46;100.00;101169.25;701083;28;4574;-63
2023/08/20 01:46:12;;;;;;;8.73;6.70;;;;;;;18.48;100.00;101167.41;694908;28;895;-64
2023/08/20 01:46:33;;;;;;;9.50;6.63;;;;;;;18.48;100.00;101170.03;695548;28;1958;-64
2023/08/20 01:46:53;;;;;;;9.68;6.95;;;;;;;18.47;100.00;101165.66;699595;28;1304;-64